createdAt,value
2016-08-22T00:00:33.740Z,1012.27
2016-08-22T00:01:33.720Z,1012.25
2016-08-22T00:02:33.700Z,1012.23
2016-08-22T00:03:33.680Z,1012.22
2016-08-22T00:04:33.662Z,1012.29
2016-08-22T00:05:33.635Z,1012.31
2016-08-22T00:06:33.615Z,1012.27
2016-08-22T00:07:33.594Z,1012.29
2016-08-22T00:08:33.572Z,1012.28
2016-08-22T00:09:33.552Z,1012.29
2016-08-22T00:10:33.532Z,1012.27
2016-08-22T00:11:33.510Z,1012.25
2016-08-22T00:12:33.489Z,1012.24
2016-08-22T00:13:33.468Z,1012.26
2016-08-22T00:14:33.448Z,1012.31
2016-08-22T00:15:33.426Z,1012.26
2016-08-22T00:16:33.406Z,1012.31
2016-08-22T00:17:33.386Z,1012.31
2016-08-22T00:18:33.363Z,1012.34
2016-08-22T00:19:33.343Z,1012.34
2016-08-22T00:20:33.337Z,1012.38
2016-08-22T00:21:33.302Z,1012.38
2016-08-22T00:22:33.281Z,1012.37
2016-08-22T00:23:33.261Z,1012.4
2016-08-22T00:24:33.240Z,1012.42
2016-08-22T00:25:33.219Z,1012.44
2016-08-22T00:26:33.196Z,1012.46
2016-08-22T00:27:33.176Z,1012.48
2016-08-22T00:28:33.156Z,1012.47
2016-08-22T00:29:33.134Z,1012.43
2016-08-22T00:30:33.114Z,1012.45
2016-08-22T00:31:33.093Z,1012.35
2016-08-22T00:32:33.076Z,1012.36
2016-08-22T00:33:33.049Z,1012.37
2016-08-22T00:34:33.041Z,1012.41
2016-08-22T00:35:33.008Z,1012.41
2016-08-22T00:36:32.988Z,1012.49
2016-08-22T00:37:32.968Z,1012.45
2016-08-22T00:38:32.947Z,1012.42
2016-08-22T00:39:32.926Z,1012.45
2016-08-22T00:40:32.905Z,1012.42
2016-08-22T00:41:32.885Z,1012.44
2016-08-22T00:42:32.864Z,1012.44
2016-08-22T00:43:32.843Z,1012.44
2016-08-22T00:44:32.822Z,1012.44
2016-08-22T00:45:32.801Z,1012.46
2016-08-22T00:46:32.780Z,1012.43
2016-08-22T00:47:32.758Z,1012.45
2016-08-22T00:48:32.742Z,1012.49
2016-08-22T00:49:32.718Z,1012.46
2016-08-22T00:50:32.697Z,1012.5
2016-08-22T00:51:32.684Z,1012.51
2016-08-22T00:52:32.654Z,1012.49
2016-08-22T00:53:32.633Z,1012.51
2016-08-22T00:54:32.613Z,1012.55
2016-08-22T00:55:32.591Z,1012.58
2016-08-22T00:56:32.569Z,1012.58
2016-08-22T00:57:32.551Z,1012.6
2016-08-22T00:58:32.528Z,1012.63
2016-08-22T00:59:32.506Z,1012.65
2016-08-22T01:00:32.487Z,1012.64
2016-08-22T01:01:32.466Z,1012.7
2016-08-22T01:02:32.445Z,1012.64
2016-08-22T01:03:32.423Z,1012.68
2016-08-22T01:04:32.402Z,1012.6
2016-08-22T01:05:32.381Z,1012.61
2016-08-22T01:06:32.359Z,1012.63
2016-08-22T01:07:32.337Z,1012.57
2016-08-22T01:08:32.317Z,1012.59
2016-08-22T01:09:32.295Z,1012.53
2016-08-22T01:10:32.276Z,1012.57
2016-08-22T01:11:32.255Z,1012.52
2016-08-22T01:12:32.234Z,1012.48
2016-08-22T01:13:32.211Z,1012.45
2016-08-22T01:14:32.190Z,1012.4
2016-08-22T01:15:32.170Z,1012.41
2016-08-22T01:16:32.148Z,1012.39
2016-08-22T01:17:32.126Z,1012.43
2016-08-22T01:18:32.105Z,1012.43
2016-08-22T01:19:32.084Z,1012.51
2016-08-22T01:20:32.064Z,1012.48
2016-08-22T01:21:32.043Z,1012.51
2016-08-22T01:22:32.021Z,1012.53
2016-08-22T01:23:32.000Z,1012.52
2016-08-22T01:24:31.979Z,1012.58
2016-08-22T01:25:31.958Z,1012.56
2016-08-22T01:26:31.943Z,1012.61
2016-08-22T01:27:31.915Z,1012.62
2016-08-22T01:28:31.893Z,1012.67
2016-08-22T01:29:31.873Z,1012.63
2016-08-22T01:30:31.851Z,1012.64
2016-08-22T01:31:31.829Z,1012.57
2016-08-22T01:32:31.809Z,1012.57
2016-08-22T01:33:31.788Z,1012.54
2016-08-22T01:34:31.767Z,1012.53
2016-08-22T01:35:31.744Z,1012.52
2016-08-22T01:36:31.723Z,1012.5
2016-08-22T01:37:31.702Z,1012.55
2016-08-22T01:38:31.683Z,1012.55
2016-08-22T01:39:31.659Z,1012.55
2016-08-22T01:40:31.640Z,1012.66
2016-08-22T01:41:31.618Z,1012.65
2016-08-22T01:42:31.596Z,1012.69
2016-08-22T01:43:31.581Z,1012.68
2016-08-22T01:44:31.552Z,1012.65
2016-08-22T01:45:31.532Z,1012.69
2016-08-22T01:46:31.510Z,1012.74
2016-08-22T01:47:31.489Z,1012.72
2016-08-22T01:48:31.470Z,1012.73
2016-08-22T01:49:31.447Z,1012.69
2016-08-22T01:50:31.425Z,1012.75
2016-08-22T01:51:31.404Z,1012.7
2016-08-22T01:52:31.383Z,1012.73
2016-08-22T01:53:31.360Z,1012.72
2016-08-22T01:54:31.339Z,1012.69
2016-08-22T01:55:31.319Z,1012.71
2016-08-22T01:56:31.297Z,1012.68
2016-08-22T01:57:31.281Z,1012.69
2016-08-22T01:58:31.253Z,1012.68
2016-08-22T01:59:31.234Z,1012.67
2016-08-22T02:00:31.213Z,1012.69
2016-08-22T02:01:31.190Z,1012.7
2016-08-22T02:02:31.168Z,1012.64
2016-08-22T02:03:31.148Z,1012.65
2016-08-22T02:04:31.124Z,1012.63
2016-08-22T02:05:31.109Z,1012.64
2016-08-22T02:06:31.082Z,1012.62
2016-08-22T02:07:31.061Z,1012.63
2016-08-22T02:08:31.039Z,1012.52
2016-08-22T02:09:31.018Z,1012.54
2016-08-22T02:10:30.995Z,1012.52
2016-08-22T02:11:30.977Z,1012.55
2016-08-22T02:12:30.954Z,1012.56
2016-08-22T02:13:30.932Z,1012.54
2016-08-22T02:14:30.911Z,1012.54
2016-08-22T02:15:30.889Z,1012.51
2016-08-22T02:16:30.868Z,1012.57
2016-08-22T02:17:30.846Z,1012.57
2016-08-22T02:18:30.825Z,1012.57
2016-08-22T02:19:30.804Z,1012.61
2016-08-22T02:20:30.781Z,1012.64
2016-08-22T02:21:30.758Z,1012.63
2016-08-22T02:22:30.737Z,1012.68
2016-08-22T02:23:30.717Z,1012.69
2016-08-22T02:24:30.694Z,1012.66
2016-08-22T02:25:30.672Z,1012.67
2016-08-22T02:26:30.650Z,1012.64
2016-08-22T02:27:30.630Z,1012.62
2016-08-22T02:28:30.608Z,1012.62
2016-08-22T02:29:30.587Z,1012.64
2016-08-22T02:30:30.564Z,1012.63
2016-08-22T02:31:30.543Z,1012.65
2016-08-22T02:32:30.522Z,1012.58
2016-08-22T02:33:30.498Z,1012.61
2016-08-22T02:34:30.476Z,1012.59
2016-08-22T02:35:30.455Z,1012.6
2016-08-22T02:36:30.435Z,1012.59
2016-08-22T02:37:30.411Z,1012.63
2016-08-22T02:38:30.390Z,1012.67
2016-08-22T02:39:30.368Z,1012.66
2016-08-22T02:40:30.348Z,1012.72
2016-08-22T02:41:30.323Z,1012.64
2016-08-22T02:42:30.303Z,1012.66
2016-08-22T02:43:30.282Z,1012.7
2016-08-22T02:44:30.257Z,1012.67
2016-08-22T02:45:30.236Z,1012.74
2016-08-22T02:46:30.215Z,1012.75
2016-08-22T02:47:30.192Z,1012.72
2016-08-22T02:48:30.171Z,1012.73
2016-08-22T02:49:30.149Z,1012.68
2016-08-22T02:50:30.126Z,1012.7
2016-08-22T02:51:30.106Z,1012.66
2016-08-22T02:52:30.082Z,1012.62
2016-08-22T02:53:30.060Z,1012.58
2016-08-22T02:54:30.040Z,1012.61
2016-08-22T02:55:30.016Z,1012.63
2016-08-22T02:56:29.994Z,1012.65
2016-08-22T02:57:29.974Z,1012.66
2016-08-22T02:58:29.951Z,1012.67
2016-08-22T02:59:29.929Z,1012.71
2016-08-22T03:00:29.907Z,1012.7
2016-08-22T03:01:29.886Z,1012.73
2016-08-22T03:02:29.868Z,1012.72
2016-08-22T03:03:29.840Z,1012.71
2016-08-22T03:04:29.818Z,1012.69
2016-08-22T03:05:29.801Z,1012.67
2016-08-22T03:06:29.774Z,1012.63
2016-08-22T03:07:29.752Z,1012.6
2016-08-22T03:08:29.732Z,1012.67
2016-08-22T03:09:29.710Z,1012.64
2016-08-22T03:10:29.687Z,1012.65
2016-08-22T03:11:29.676Z,1012.65
2016-08-22T03:12:29.644Z,1012.69
2016-08-22T03:13:29.625Z,1012.66
2016-08-22T03:14:29.598Z,1012.69
2016-08-22T03:15:29.577Z,1012.65
2016-08-22T03:16:29.555Z,1012.63
2016-08-22T03:17:29.531Z,1012.62
2016-08-22T03:18:29.512Z,1012.58
2016-08-22T03:19:29.490Z,1012.61
2016-08-22T03:20:29.466Z,1012.59
2016-08-22T03:21:29.445Z,1012.6
2016-08-22T03:22:29.422Z,1012.66
2016-08-22T03:23:29.400Z,1012.63
2016-08-22T03:24:29.380Z,1012.66
2016-08-22T03:25:29.355Z,1012.7
2016-08-22T03:26:29.335Z,1012.67
2016-08-22T03:27:29.311Z,1012.66
2016-08-22T03:28:29.301Z,1012.66
2016-08-22T03:29:29.266Z,1012.66
2016-08-22T03:30:29.246Z,1012.63
2016-08-22T03:31:29.224Z,1012.66
2016-08-22T03:32:29.200Z,1012.61
2016-08-22T03:33:29.179Z,1012.64
2016-08-22T03:34:29.157Z,1012.66
2016-08-22T03:35:29.135Z,1012.63
2016-08-22T03:36:29.112Z,1012.67
2016-08-22T03:37:29.090Z,1012.67
2016-08-22T03:38:29.072Z,1012.68
2016-08-22T03:39:29.047Z,1012.68
2016-08-22T03:40:29.024Z,1012.7
2016-08-22T03:41:29.002Z,1012.67
2016-08-22T03:42:28.982Z,1012.64
2016-08-22T03:43:28.958Z,1012.65
2016-08-22T03:44:28.936Z,1012.63
2016-08-22T03:45:28.914Z,1012.62
2016-08-22T03:46:28.894Z,1012.64
2016-08-22T03:47:28.872Z,1012.67
2016-08-22T03:48:28.848Z,1012.69
2016-08-22T03:49:28.828Z,1012.64
2016-08-22T03:50:28.805Z,1012.63
2016-08-22T03:51:28.782Z,1012.66
2016-08-22T03:52:28.762Z,1012.65
2016-08-22T03:53:28.739Z,1012.7
2016-08-22T03:54:28.716Z,1012.74
2016-08-22T03:55:28.694Z,1012.76
2016-08-22T03:56:28.672Z,1012.83
2016-08-22T03:57:28.650Z,1012.84
2016-08-22T03:58:28.629Z,1012.86
2016-08-22T03:59:28.606Z,1012.89
2016-08-22T04:00:28.584Z,1012.91
2016-08-22T04:01:28.561Z,1012.87
2016-08-22T04:02:28.541Z,1012.9
2016-08-22T04:03:28.518Z,1012.89
2016-08-22T04:04:28.496Z,1012.87
2016-08-22T04:05:28.473Z,1012.85
2016-08-22T04:06:28.450Z,1012.83
2016-08-22T04:07:28.431Z,1012.79
2016-08-22T04:08:28.406Z,1012.78
2016-08-22T04:09:28.384Z,1012.79
2016-08-22T04:10:28.363Z,1012.82
2016-08-22T04:11:28.341Z,1012.9
2016-08-22T04:12:28.318Z,1012.93
2016-08-22T04:13:28.296Z,1012.96
2016-08-22T04:14:28.276Z,1012.98
2016-08-22T04:15:28.253Z,1012.96
2016-08-22T04:16:28.229Z,1012.94
2016-08-22T04:17:28.211Z,1012.89
2016-08-22T04:18:28.185Z,1012.91
2016-08-22T04:19:28.163Z,1012.92
2016-08-22T04:20:28.143Z,1012.91
2016-08-22T04:21:28.121Z,1012.9
2016-08-22T04:22:28.188Z,1012.91
2016-08-22T04:23:28.075Z,1012.92
2016-08-22T04:24:28.054Z,1012.93
2016-08-22T04:25:28.031Z,1012.93
2016-08-22T04:26:28.010Z,1012.96
2016-08-22T04:27:27.987Z,1012.96
2016-08-22T04:28:27.965Z,1012.97
2016-08-22T04:29:27.944Z,1013
2016-08-22T04:30:27.922Z,1012.97
2016-08-22T04:31:27.899Z,1012.99
2016-08-22T04:32:27.878Z,1013.01
2016-08-22T04:33:27.856Z,1013.04
2016-08-22T04:34:27.833Z,1013.06
2016-08-22T04:35:27.812Z,1013.07
2016-08-22T04:36:27.791Z,1013.05
2016-08-22T04:37:27.768Z,1013.11
2016-08-22T04:38:27.745Z,1013.09
2016-08-22T04:39:27.724Z,1013.1
2016-08-22T04:40:27.704Z,1013.02
2016-08-22T04:41:27.679Z,1013.01
2016-08-22T04:42:27.660Z,1013.06
2016-08-22T04:43:27.640Z,1013
2016-08-22T04:44:27.615Z,1013.02
2016-08-22T04:45:27.594Z,1013.08
2016-08-22T04:46:27.572Z,1013.07
2016-08-22T04:47:27.551Z,1013.09
2016-08-22T04:48:27.528Z,1013.06
2016-08-22T04:49:27.506Z,1013.05
2016-08-22T04:50:27.485Z,1013.04
2016-08-22T04:51:27.464Z,1013.04
2016-08-22T04:52:27.441Z,1013.04
2016-08-22T04:53:27.420Z,1013.09
2016-08-22T04:54:27.398Z,1013.1
2016-08-22T04:55:27.378Z,1013.07
2016-08-22T04:56:27.357Z,1013.03
2016-08-22T04:57:27.334Z,1013.05
2016-08-22T04:58:27.313Z,1013.01
2016-08-22T04:59:27.292Z,1013.03
2016-08-22T05:00:27.270Z,1013.05
2016-08-22T05:01:27.248Z,1013.05
2016-08-22T05:02:27.232Z,1013.12
2016-08-22T05:03:27.204Z,1013.07
2016-08-22T05:04:27.183Z,1013.04
2016-08-22T05:05:27.162Z,1013.02
2016-08-22T05:06:27.141Z,1013.04
2016-08-22T05:07:27.118Z,1013.05
2016-08-22T05:08:27.098Z,1013.08
2016-08-22T05:09:27.076Z,1013.06
2016-08-22T05:10:27.055Z,1013.05
2016-08-22T05:11:27.033Z,1013.07
2016-08-22T05:12:27.011Z,1013.08
2016-08-22T05:13:26.992Z,1013.07
2016-08-22T05:14:26.968Z,1013.09
2016-08-22T05:15:26.946Z,1013.1
2016-08-22T05:16:26.927Z,1013.09
2016-08-22T05:17:26.906Z,1013.1
2016-08-22T05:18:26.884Z,1013.08
2016-08-22T05:19:26.870Z,1013.08
2016-08-22T05:20:26.845Z,1013.04
2016-08-22T05:21:26.819Z,1013.05
2016-08-22T05:22:26.799Z,1013.07
2016-08-22T05:23:26.779Z,1013.08
2016-08-22T05:24:26.779Z,1013.1
2016-08-22T05:25:26.786Z,1013.1
2016-08-22T05:26:26.772Z,1013.09
2016-08-22T05:27:26.746Z,1013.12
2016-08-22T05:28:26.782Z,1013.11
2016-08-22T05:29:26.703Z,1013.12
2016-08-22T05:30:26.630Z,1013.14
2016-08-22T05:31:26.661Z,1013.14
2016-08-22T05:32:26.586Z,1013.1
2016-08-22T05:33:26.565Z,1013.16
2016-08-22T05:34:26.543Z,1013.14
2016-08-22T05:35:26.523Z,1013.21
2016-08-22T05:36:26.501Z,1013.19
2016-08-22T05:37:26.481Z,1013.22
2016-08-22T05:38:26.460Z,1013.24
2016-08-22T05:39:26.439Z,1013.18
2016-08-22T05:40:26.418Z,1013.13
2016-08-22T05:41:26.396Z,1013.18
2016-08-22T05:42:26.375Z,1013.13
2016-08-22T05:43:26.353Z,1013.14
2016-08-22T05:44:26.390Z,1013.11
2016-08-22T05:45:26.365Z,1013.12
2016-08-22T05:46:26.291Z,1013.2
2016-08-22T05:47:26.270Z,1013.18
2016-08-22T05:48:26.249Z,1013.19
2016-08-22T05:49:26.228Z,1013.19
2016-08-22T05:50:26.207Z,1013.17
2016-08-22T05:51:26.185Z,1013.19
2016-08-22T05:52:26.164Z,1013.2
2016-08-22T05:53:26.144Z,1013.25
2016-08-22T05:54:26.123Z,1013.2
2016-08-22T05:55:26.101Z,1013.23
2016-08-22T05:56:26.082Z,1013.29
2016-08-22T05:57:26.061Z,1013.31
2016-08-22T05:58:26.074Z,1013.32
2016-08-22T05:59:26.072Z,1013.33
2016-08-22T06:00:26.049Z,1013.34
2016-08-22T06:01:25.977Z,1013.32
2016-08-22T06:02:25.957Z,1013.34
2016-08-22T06:03:25.936Z,1013.3
2016-08-22T06:04:25.916Z,1013.33
2016-08-22T06:05:25.895Z,1013.32
2016-08-22T06:06:25.873Z,1013.34
2016-08-22T06:07:25.852Z,1013.38
2016-08-22T06:08:25.832Z,1013.38
2016-08-22T06:09:25.811Z,1013.38
2016-08-22T06:10:25.790Z,1013.4
2016-08-22T06:11:25.770Z,1013.42
2016-08-22T06:12:25.749Z,1013.45
2016-08-22T06:13:25.731Z,1013.42
2016-08-22T06:14:25.708Z,1013.48
2016-08-22T06:15:25.748Z,1013.46
2016-08-22T06:16:25.667Z,1013.51
2016-08-22T06:17:25.646Z,1013.5
2016-08-22T06:18:25.627Z,1013.48
2016-08-22T06:19:25.606Z,1013.47
2016-08-22T06:20:25.768Z,1013.49
2016-08-22T06:21:25.565Z,1013.47
2016-08-22T06:22:25.600Z,1013.47
2016-08-22T06:23:25.525Z,1013.43
2016-08-22T06:24:25.503Z,1013.44
2016-08-22T06:25:25.527Z,1013.49
2016-08-22T06:26:25.464Z,1013.48
2016-08-22T06:27:25.442Z,1013.47
2016-08-22T06:28:25.482Z,1013.49
2016-08-22T06:29:25.425Z,1013.54
2016-08-22T06:30:25.382Z,1013.53
2016-08-22T06:31:25.361Z,1013.58
2016-08-22T06:32:25.737Z,1013.63
2016-08-22T06:33:25.354Z,1013.66
2016-08-22T06:34:25.354Z,1013.64
2016-08-22T06:35:25.315Z,1013.7
2016-08-22T06:36:25.259Z,1013.68
2016-08-22T06:37:25.241Z,1013.67
2016-08-22T06:38:25.218Z,1013.67
2016-08-22T06:39:25.199Z,1013.66
2016-08-22T06:40:25.178Z,1013.65
2016-08-22T06:41:25.160Z,1013.6
2016-08-22T06:42:25.138Z,1013.59
2016-08-22T06:43:25.120Z,1013.63
2016-08-22T06:44:25.135Z,1013.56
2016-08-22T06:45:25.078Z,1013.6
2016-08-22T06:46:25.059Z,1013.6
2016-08-22T06:47:25.038Z,1013.61
2016-08-22T06:48:25.029Z,1013.61
2016-08-22T06:49:24.997Z,1013.66
2016-08-22T06:50:24.983Z,1013.65
2016-08-22T06:51:24.957Z,1013.65
2016-08-22T06:52:24.937Z,1013.68
2016-08-22T06:53:24.916Z,1013.65
2016-08-22T06:54:24.897Z,1013.68
2016-08-22T06:55:24.880Z,1013.62
2016-08-22T06:56:24.858Z,1013.62
2016-08-22T06:57:24.840Z,1013.66
2016-08-22T06:58:24.819Z,1013.68
2016-08-22T06:59:24.800Z,1013.65
2016-08-22T07:00:24.779Z,1013.63
2016-08-22T07:01:24.760Z,1013.65
2016-08-22T07:02:24.741Z,1013.65
2016-08-22T07:03:24.722Z,1013.61
2016-08-22T07:04:24.701Z,1013.66
2016-08-22T07:05:24.682Z,1013.62
2016-08-22T07:06:24.894Z,1013.59
2016-08-22T07:07:24.643Z,1013.64
2016-08-22T07:08:24.625Z,1013.6
2016-08-22T07:09:24.613Z,1013.52
2016-08-22T07:10:24.821Z,1013.54
2016-08-22T07:11:24.726Z,1013.54
2016-08-22T07:12:24.752Z,1013.58
2016-08-22T07:13:24.531Z,1013.58
2016-08-22T07:14:24.534Z,1013.56
2016-08-22T07:15:24.489Z,1013.63
2016-08-22T07:16:24.471Z,1013.61
2016-08-22T07:17:24.453Z,1013.68
2016-08-22T07:18:24.483Z,1013.7
2016-08-22T07:19:24.710Z,1013.73
2016-08-22T07:20:24.395Z,1013.7
2016-08-22T07:21:24.377Z,1013.72
2016-08-22T07:22:24.358Z,1013.73
2016-08-22T07:23:24.346Z,1013.73
2016-08-22T07:24:24.532Z,1013.69
2016-08-22T07:25:24.396Z,1013.69
2016-08-22T07:26:24.332Z,1013.71
2016-08-22T07:27:24.318Z,1013.69
2016-08-22T07:28:24.245Z,1013.75
2016-08-22T07:29:24.284Z,1013.74
2016-08-22T07:30:24.329Z,1013.76
2016-08-22T07:31:24.371Z,1013.79
2016-08-22T07:32:24.225Z,1013.8
2016-08-22T07:33:24.201Z,1013.81
2016-08-22T07:34:24.158Z,1013.84
2016-08-22T07:35:24.269Z,1013.81
2016-08-22T07:36:24.198Z,1013.76
2016-08-22T07:37:24.080Z,1013.79
2016-08-22T07:38:24.061Z,1013.79
2016-08-22T07:39:24.059Z,1013.8
2016-08-22T07:40:24.115Z,1013.77
2016-08-22T07:41:24.073Z,1013.8
2016-08-22T07:42:24.124Z,1013.89
2016-08-22T07:43:24.169Z,1013.86
2016-08-22T07:44:24.160Z,1013.84
2016-08-22T07:45:24.287Z,1013.87
2016-08-22T07:46:24.048Z,1013.84
2016-08-22T07:47:24.117Z,1013.81
2016-08-22T07:48:24.030Z,1013.84
2016-08-22T07:49:23.959Z,1013.84
2016-08-22T07:50:23.848Z,1013.84
2016-08-22T07:51:23.828Z,1013.87
2016-08-22T07:52:23.933Z,1013.87
2016-08-22T07:53:24.031Z,1013.91
2016-08-22T07:54:23.905Z,1013.87
2016-08-22T07:55:23.816Z,1013.85
2016-08-22T07:56:23.776Z,1013.9
2016-08-22T07:57:23.780Z,1013.89
2016-08-22T07:58:23.706Z,1013.9
2016-08-22T07:59:23.874Z,1013.86
2016-08-22T08:00:23.821Z,1013.96
2016-08-22T08:01:23.815Z,1013.96
2016-08-22T08:02:23.811Z,1013.99
2016-08-22T08:03:23.790Z,1014.01
2016-08-22T08:04:23.858Z,1013.97
2016-08-22T08:05:23.584Z,1014.02
2016-08-22T08:06:23.618Z,1013.98
2016-08-22T08:07:23.550Z,1013.96
2016-08-22T08:08:23.620Z,1014.01
2016-08-22T08:09:23.524Z,1014.01
2016-08-22T08:10:23.628Z,1014.02
2016-08-22T08:11:23.481Z,1014.07
2016-08-22T08:12:23.463Z,1014.05
2016-08-22T08:13:23.752Z,1014.05
2016-08-22T08:14:23.428Z,1014.04
2016-08-22T08:15:23.411Z,1014.02
2016-08-22T08:16:23.465Z,1014.04
2016-08-22T08:17:23.376Z,1014.12
2016-08-22T08:18:23.546Z,1014.03
2016-08-22T08:19:23.533Z,1014.08
2016-08-22T08:20:23.539Z,1014.11
2016-08-22T08:21:23.544Z,1014.12
2016-08-22T08:22:23.555Z,1014.16
2016-08-22T08:23:23.499Z,1014.2
2016-08-22T08:24:23.432Z,1014.14
2016-08-22T08:25:23.569Z,1014.16
2016-08-22T08:26:23.853Z,1014.11
2016-08-22T08:27:23.397Z,1014.1
2016-08-22T08:28:23.471Z,1014.1
2016-08-22T08:29:23.405Z,1014.14
2016-08-22T08:30:23.159Z,1014.15
2016-08-22T08:31:23.141Z,1014.12
2016-08-22T08:32:23.127Z,1014.17
2016-08-22T08:33:23.109Z,1014.12
2016-08-22T08:34:23.092Z,1014.2
2016-08-22T08:35:23.076Z,1014.19
2016-08-22T08:36:23.059Z,1014.19
2016-08-22T08:37:23.048Z,1014.15
2016-08-22T08:38:23.026Z,1014.21
2016-08-22T08:39:23.009Z,1014.13
2016-08-22T08:40:22.992Z,1014.21
2016-08-22T08:41:22.975Z,1014.12
2016-08-22T08:42:22.956Z,1014.1
2016-08-22T08:43:23.111Z,1014.14
2016-08-22T08:44:22.973Z,1014.1
2016-08-22T08:45:22.906Z,1014.11
2016-08-22T08:46:22.894Z,1014.17
2016-08-22T08:47:22.928Z,1014.19
2016-08-22T08:48:22.894Z,1014.09
2016-08-22T08:49:22.839Z,1014.11
2016-08-22T08:50:22.842Z,1014.19
2016-08-22T08:51:22.824Z,1014.17
2016-08-22T08:52:22.788Z,1014.2
2016-08-22T08:53:22.876Z,1014.26
2016-08-22T08:54:22.962Z,1014.22
2016-08-22T08:55:22.737Z,1014.19
2016-08-22T08:56:22.950Z,1014.22
2016-08-22T08:57:22.743Z,1014.13
2016-08-22T08:58:22.710Z,1014.22
2016-08-22T08:59:22.714Z,1014.18
2016-08-22T09:00:22.705Z,1014.13
2016-08-22T09:01:22.699Z,1014.15
2016-08-22T09:02:22.673Z,1014.17
2016-08-22T09:03:22.598Z,1014.18
2016-08-22T09:04:22.579Z,1014.16
2016-08-22T09:05:22.564Z,1014.13
2016-08-22T09:06:22.601Z,1014.17
2016-08-22T09:07:22.552Z,1014.15
2016-08-22T09:08:22.533Z,1014.23
2016-08-22T09:09:22.516Z,1014.22
2016-08-22T09:10:22.678Z,1014.16
2016-08-22T09:11:22.459Z,1014.17
2016-08-22T09:12:22.546Z,1014.16
2016-08-22T09:13:22.597Z,1014.05
2016-08-22T09:14:22.412Z,1014.16
2016-08-22T09:15:22.556Z,1014.14
2016-08-22T09:16:22.488Z,1014.16
2016-08-22T09:17:22.430Z,1014.14
2016-08-22T09:18:22.349Z,1014.13
2016-08-22T09:19:22.375Z,1014.16
2016-08-22T09:20:22.305Z,1014.15
2016-08-22T09:21:22.446Z,1014.1
2016-08-22T09:22:22.272Z,1014.13
2016-08-22T09:23:22.286Z,1014.05
2016-08-22T09:24:22.237Z,1014.07
2016-08-22T09:25:22.220Z,1014.09
2016-08-22T09:26:22.203Z,1014.12
2016-08-22T09:27:22.318Z,1014.09
2016-08-22T09:28:22.169Z,1014.12
2016-08-22T09:29:22.154Z,1014.13
2016-08-22T09:30:22.387Z,1014.18
2016-08-22T09:31:22.165Z,1014.22
2016-08-22T09:32:22.136Z,1014.25
2016-08-22T09:33:22.084Z,1014.26
2016-08-22T09:34:22.270Z,1014.27
2016-08-22T09:35:22.365Z,1014.27
2016-08-22T09:36:22.060Z,1014.23
2016-08-22T09:37:22.056Z,1014.22
2016-08-22T09:38:21.998Z,1014.18
2016-08-22T09:39:21.983Z,1014.16
2016-08-22T09:40:21.965Z,1014.14
2016-08-22T09:41:22.021Z,1014.16
2016-08-22T09:42:21.929Z,1014.22
2016-08-22T09:43:21.913Z,1014.21
2016-08-22T09:44:21.895Z,1014.24
2016-08-22T09:45:21.880Z,1014.2
2016-08-22T09:46:21.860Z,1014.23
2016-08-22T09:47:21.842Z,1014.29
2016-08-22T09:48:21.824Z,1014.22
2016-08-22T09:49:21.808Z,1014.18
2016-08-22T09:50:21.839Z,1014.22
2016-08-22T09:51:21.772Z,1014.3
2016-08-22T09:52:21.911Z,1014.28
2016-08-22T09:53:21.927Z,1014.29
2016-08-22T09:54:21.720Z,1014.29
2016-08-22T09:55:21.705Z,1014.32
2016-08-22T09:56:21.684Z,1014.34
2016-08-22T09:57:21.667Z,1014.37
2016-08-22T09:58:21.649Z,1014.33
2016-08-22T09:59:21.631Z,1014.27
2016-08-22T10:00:21.712Z,1014.29
2016-08-22T10:01:21.728Z,1014.26
2016-08-22T10:02:21.578Z,1014.21
2016-08-22T10:03:21.558Z,1014.18
2016-08-22T10:04:21.542Z,1014.2
2016-08-22T10:05:21.604Z,1014.2
2016-08-22T10:06:21.567Z,1014.15
2016-08-22T10:07:21.997Z,1014.16
2016-08-22T10:08:21.615Z,1014.18
2016-08-22T10:09:21.531Z,1014.18
2016-08-22T10:10:21.515Z,1014.19
2016-08-22T10:11:21.462Z,1014.12
2016-08-22T10:12:21.441Z,1014.15
2016-08-22T10:13:21.507Z,1014.15
2016-08-22T10:14:21.537Z,1014.21
2016-08-22T10:15:21.346Z,1014.26
2016-08-22T10:16:21.477Z,1014.28
2016-08-22T10:17:21.309Z,1014.23
2016-08-22T10:18:21.291Z,1014.25
2016-08-22T10:19:21.467Z,1014.27
2016-08-22T10:20:21.260Z,1014.31
2016-08-22T10:21:21.409Z,1014.29
2016-08-22T10:22:21.310Z,1014.37
2016-08-22T10:23:21.253Z,1014.34
2016-08-22T10:24:21.185Z,1014.33
2016-08-22T10:25:21.293Z,1014.33
2016-08-22T10:26:21.148Z,1014.39
2016-08-22T10:27:21.184Z,1014.37
2016-08-22T10:28:21.111Z,1014.41
2016-08-22T10:29:21.096Z,1014.38
2016-08-22T10:30:21.280Z,1014.36
2016-08-22T10:31:21.059Z,1014.38
2016-08-22T10:32:21.362Z,1014.4
2016-08-22T10:33:21.022Z,1014.39
2016-08-22T10:34:21.005Z,1014.34
2016-08-22T10:35:20.988Z,1014.32
2016-08-22T10:36:21.028Z,1014.39
2016-08-22T10:37:21.179Z,1014.44
2016-08-22T10:38:20.934Z,1014.41
2016-08-22T10:39:20.917Z,1014.37
2016-08-22T10:40:20.898Z,1014.39
2016-08-22T10:41:20.941Z,1014.35
2016-08-22T10:42:20.864Z,1014.39
2016-08-22T10:43:20.846Z,1014.36
2016-08-22T10:44:20.869Z,1014.37
2016-08-22T10:45:20.821Z,1014.35
2016-08-22T10:46:20.889Z,1014.33
2016-08-22T10:47:20.777Z,1014.37
2016-08-22T10:48:20.760Z,1014.43
2016-08-22T10:49:20.743Z,1014.44
2016-08-22T10:50:20.727Z,1014.42
2016-08-22T10:51:20.708Z,1014.39
2016-08-22T10:52:20.938Z,1014.44
2016-08-22T10:53:20.675Z,1014.51
2016-08-22T10:54:20.657Z,1014.49
2016-08-22T10:55:20.641Z,1014.55
2016-08-22T10:56:20.627Z,1014.49
2016-08-22T10:57:20.655Z,1014.51
2016-08-22T10:58:20.590Z,1014.5
2016-08-22T10:59:20.573Z,1014.49
2016-08-22T11:00:20.557Z,1014.38
2016-08-22T11:01:20.539Z,1014.4
2016-08-22T11:02:20.523Z,1014.43
2016-08-22T11:03:20.506Z,1014.49
2016-08-22T11:04:20.490Z,1014.41
2016-08-22T11:05:20.474Z,1014.47
2016-08-22T11:06:20.455Z,1014.42
2016-08-22T11:07:20.447Z,1014.48
2016-08-22T11:08:20.422Z,1014.48
2016-08-22T11:09:20.780Z,1014.52
2016-08-22T11:10:20.387Z,1014.57
2016-08-22T11:11:20.399Z,1014.5
2016-08-22T11:12:20.353Z,1014.47
2016-08-22T11:13:20.336Z,1014.46
2016-08-22T11:14:20.320Z,1014.46
2016-08-22T11:15:20.303Z,1014.45
2016-08-22T11:16:20.284Z,1014.41
2016-08-22T11:17:20.269Z,1014.46
2016-08-22T11:18:20.252Z,1014.46
2016-08-22T11:19:20.237Z,1014.47
2016-08-22T11:20:20.231Z,1014.5
2016-08-22T11:21:20.201Z,1014.51
2016-08-22T11:22:20.248Z,1014.49
2016-08-22T11:23:20.409Z,1014.49
2016-08-22T11:24:20.151Z,1014.56
2016-08-22T11:25:20.134Z,1014.56
2016-08-22T11:26:20.120Z,1014.5
2016-08-22T11:27:20.099Z,1014.62
2016-08-22T11:28:20.085Z,1014.55
2016-08-22T11:29:20.068Z,1014.63
2016-08-22T11:30:20.051Z,1014.58
2016-08-22T11:31:20.034Z,1014.57
2016-08-22T11:32:20.019Z,1014.6
2016-08-22T11:33:20.166Z,1014.63
2016-08-22T11:34:20.037Z,1014.72
2016-08-22T11:35:19.968Z,1014.69
2016-08-22T11:36:19.951Z,1014.62
2016-08-22T11:37:19.933Z,1014.65
2016-08-22T11:38:19.985Z,1014.62
2016-08-22T11:39:19.899Z,1014.57
2016-08-22T11:40:19.883Z,1014.66
2016-08-22T11:41:20.044Z,1014.66
2016-08-22T11:42:19.849Z,1014.66
2016-08-22T11:43:19.832Z,1014.66
2016-08-22T11:44:19.869Z,1014.63
2016-08-22T11:45:19.798Z,1014.67
2016-08-22T11:46:19.782Z,1014.64
2016-08-22T11:47:19.821Z,1014.69
2016-08-22T11:48:19.748Z,1014.76
2016-08-22T11:49:19.731Z,1014.72
2016-08-22T11:50:19.763Z,1014.8
2016-08-22T11:51:19.698Z,1014.74
2016-08-22T11:52:19.681Z,1014.8
2016-08-22T11:53:19.833Z,1014.74
2016-08-22T11:54:19.661Z,1014.7
2016-08-22T11:55:19.630Z,1014.77
2016-08-22T11:56:19.614Z,1014.85
2016-08-22T11:57:19.596Z,1014.78
2016-08-22T11:58:19.581Z,1014.79
2016-08-22T11:59:19.678Z,1014.75
2016-08-22T12:00:19.546Z,1014.82
2016-08-22T12:01:19.630Z,1014.79
2016-08-22T12:02:19.928Z,1014.78
2016-08-22T12:03:19.611Z,1014.77
2016-08-22T12:04:19.480Z,1014.79
2016-08-22T12:05:19.524Z,1014.74
2016-08-22T12:06:19.735Z,1014.89
2016-08-22T12:07:19.428Z,1014.83
2016-08-22T12:08:19.413Z,1014.84